sensor_id;sensor_type;location;lat;lon;timestamp;pressure;altitude;pressure_sealevel;temperature;humidity
49515;BME280;35415;47.870;16.058;2024-02-26T00:02:20;95858.75;;;1.69;99.21
49515;BME280;35415;47.870;16.058;2024-02-26T00:04:48;95884.97;;;1.88;99.75
49515;BME280;35415;47.870;16.058;2024-02-26T00:07:15;96011.56;;;2.58;99.69
49515;BME280;35415;47.870;16.058;2024-02-26T00:09:43;95872.66;;;1.81;100.00
49515;BME280;35415;47.870;16.058;2024-02-26T00:12:10;95986.00;;;2.52;100.00
49515;BME280;35415;47.870;16.058;2024-02-26T00:14:37;95980.53;;;2.36;100.00
49515;BME280;35415;47.870;16.058;2024-02-26T00:17:04;96070.63;;;3.14;100.00
49515;BME280;35415;47.870;16.058;2024-02-26T00:19:35;96070.63;;;3.14;99.94
49515;BME280;35415;47.870;16.058;2024-02-26T00:22:02;96041.84;;;3.06;99.90
49515;BME280;35415;47.870;16.058;2024-02-26T00:24:29;96069.38;;;3.21;99.76
49515;BME280;35415;47.870;16.058;2024-02-26T00:26:56;96050.47;;;3.18;99.58
49515;BME280;35415;47.870;16.058;2024-02-26T00:29:23;96071.88;;;3.33;99.51
49515;BME280;35415;47.870;16.058;2024-02-26T00:31:51;95891.09;;;2.15;98.43
49515;BME280;35415;47.870;16.058;2024-02-26T00:34:18;95957.06;;;2.72;98.66
49515;BME280;35415;47.870;16.058;2024-02-26T00:36:47;96063.66;;;3.35;98.28
49515;BME280;35415;47.870;16.058;2024-02-26T00:39:14;95993.16;;;3.00;97.88
49515;BME280;35415;47.870;16.058;2024-02-26T00:41:41;95924.78;;;2.58;97.33
49515;BME280;35415;47.870;16.058;2024-02-26T00:44:09;96056.03;;;3.43;97.38
49515;BME280;35415;47.870;16.058;2024-02-26T00:46:37;95974.38;;;2.80;97.28
49515;BME280;35415;47.870;16.058;2024-02-26T00:49:04;96023.97;;;3.23;96.96
49515;BME280;35415;47.870;16.058;2024-02-26T00:51:31;95904.44;;;2.42;96.96
49515;BME280;35415;47.870;16.058;2024-02-26T00:54:00;95894.56;;;2.37;96.44
49515;BME280;35415;47.870;16.058;2024-02-26T00:56:27;95953.84;;;2.70;96.02
49515;BME280;35415;47.870;16.058;2024-02-26T00:58:54;96045.06;;;3.35;97.69
49515;BME280;35415;47.870;16.058;2024-02-26T01:01:21;96026.56;;;3.18;97.74
49515;BME280;35415;47.870;16.058;2024-02-26T01:03:48;95854.22;;;2.14;97.39
49515;BME280;35415;47.870;16.058;2024-02-26T01:06:16;95964.56;;;2.80;98.74
49515;BME280;35415;47.870;16.058;2024-02-26T01:08:43;96022.78;;;3.14;99.17
49515;BME280;35415;47.870;16.058;2024-02-26T01:11:11;96051.16;;;3.35;99.21
49515;BME280;35415;47.870;16.058;2024-02-26T01:13:39;96018.28;;;3.14;99.23
49515;BME280;35415;47.870;16.058;2024-02-26T01:16:06;95975.00;;;2.87;99.19
49515;BME280;35415;47.870;16.058;2024-02-26T01:18:34;95859.84;;;2.17;98.74
49515;BME280;35415;47.870;16.058;2024-02-26T01:21:01;96040.31;;;3.37;98.87
49515;BME280;35415;47.870;16.058;2024-02-26T01:23:30;95902.88;;;2.46;98.65
49515;BME280;35415;47.870;16.058;2024-02-26T01:25:57;95884.25;;;2.41;98.77
49515;BME280;35415;47.870;16.058;2024-02-26T01:28:26;95999.75;;;3.19;99.33
49515;BME280;35415;47.870;16.058;2024-02-26T01:30:53;96032.88;;;3.39;98.85
49515;BME280;35415;47.870;16.058;2024-02-26T01:33:20;96011.53;;;3.28;99.64
49515;BME280;35415;47.870;16.058;2024-02-26T01:35:47;95932.81;;;2.68;98.96
49515;BME280;35415;47.870;16.058;2024-02-26T01:38:15;95925.47;;;2.76;99.78
49515;BME280;35415;47.870;16.058;2024-02-26T01:40:42;95989.06;;;3.14;99.31
49515;BME280;35415;47.870;16.058;2024-02-26T01:43:09;95996.63;;;3.27;98.57
49515;BME280;35415;47.870;16.058;2024-02-26T01:45:38;95899.31;;;2.62;98.67
49515;BME280;35415;47.870;16.058;2024-02-26T01:48:08;95841.13;;;2.29;99.09
49515;BME280;35415;47.870;16.058;2024-02-26T01:50:36;96002.22;;;3.31;98.73
49515;BME280;35415;47.870;16.058;2024-02-26T01:53:05;95898.47;;;2.57;99.29
49515;BME280;35415;47.870;16.058;2024-02-26T01:55:33;95903.66;;;2.47;98.39
49515;BME280;35415;47.870;16.058;2024-02-26T01:58:01;95817.25;;;2.02;98.60
49515;BME280;35415;47.870;16.058;2024-02-26T02:00:28;96002.16;;;3.21;98.63
49515;BME280;35415;47.870;16.058;2024-02-26T02:02:57;95994.44;;;3.19;98.12
49515;BME280;35415;47.870;16.058;2024-02-26T02:05:25;95897.78;;;2.39;98.44
49515;BME280;35415;47.870;16.058;2024-02-26T02:07:54;95997.84;;;3.15;98.16
49515;BME280;35415;47.870;16.058;2024-02-26T02:10:21;95798.53;;;1.87;98.50
49515;BME280;35415;47.870;16.058;2024-02-26T02:12:51;95852.06;;;2.10;98.40
49515;BME280;35415;47.870;16.058;2024-02-26T02:15:18;95862.25;;;2.19;98.99
49515;BME280;35415;47.870;16.058;2024-02-26T02:17:45;95916.44;;;2.50;98.92
49515;BME280;35415;47.870;16.058;2024-02-26T02:20:17;95994.44;;;2.92;99.30
49515;BME280;35415;47.870;16.058;2024-02-26T02:22:46;95853.00;;;1.99;99.70
49515;BME280;35415;47.870;16.058;2024-02-26T02:25:13;96004.56;;;2.95;99.68
49515;BME280;35415;47.870;16.058;2024-02-26T02:27:41;95883.41;;;2.14;99.30
49515;BME280;35415;47.870;16.058;2024-02-26T02:30:11;95868.91;;;1.99;99.39
49515;BME280;35415;47.870;16.058;2024-02-26T02:32:40;95831.00;;;1.77;98.82
49515;BME280;35415;47.870;16.058;2024-02-26T02:35:08;95880.66;;;2.03;100.00
49515;BME280;35415;47.870;16.058;2024-02-26T02:37:35;95926.72;;;2.41;100.00
49515;BME280;35415;47.870;16.058;2024-02-26T02:40:05;96000.41;;;2.83;100.00
49515;BME280;35415;47.870;16.058;2024-02-26T02:42:32;95880.81;;;1.97;100.00
49515;BME280;35415;47.870;16.058;2024-02-26T02:44:59;95901.56;;;2.22;100.00
49515;BME280;35415;47.870;16.058;2024-02-26T02:47:28;95987.34;;;2.76;99.98
49515;BME280;35415;47.870;16.058;2024-02-26T02:49:55;95969.94;;;2.63;99.75
49515;BME280;35415;47.870;16.058;2024-02-26T02:52:22;95832.97;;;1.65;100.00
49515;BME280;35415;47.870;16.058;2024-02-26T02:54:50;95964.84;;;2.57;100.00
49515;BME280;35415;47.870;16.058;2024-02-26T02:57:18;95843.72;;;1.75;100.00
49515;BME280;35415;47.870;16.058;2024-02-26T02:59:46;95817.66;;;1.50;100.00
49515;BME280;35415;47.870;16.058;2024-02-26T03:02:13;95914.13;;;2.09;100.00
49515;BME280;35415;47.870;16.058;2024-02-26T03:04:41;95976.75;;;2.54;100.00
49515;BME280;35415;47.870;16.058;2024-02-26T03:07:08;95891.25;;;2.03;100.00
49515;BME280;35415;47.870;16.058;2024-02-26T03:09:35;95960.47;;;2.46;100.00
49515;BME280;35415;47.870;16.058;2024-02-26T03:12:02;95812.38;;;1.50;100.00
49515;BME280;35415;47.870;16.058;2024-02-26T03:14:31;95783.53;;;1.32;100.00
49515;BME280;35415;47.870;16.058;2024-02-26T03:16:58;95794.44;;;1.35;100.00
49515;BME280;35415;47.870;16.058;2024-02-26T03:19:26;95776.97;;;1.17;100.00
49515;BME280;35415;47.870;16.058;2024-02-26T03:21:53;95843.00;;;1.63;100.00
49515;BME280;35415;47.870;16.058;2024-02-26T03:24:20;95944.19;;;2.37;100.00
49515;BME280;35415;47.870;16.058;2024-02-26T03:26:47;95789.38;;;1.34;100.00
49515;BME280;35415;47.870;16.058;2024-02-26T03:29:15;95868.81;;;1.89;100.00
49515;BME280;35415;47.870;16.058;2024-02-26T03:31:43;95942.59;;;2.36;100.00
49515;BME280;35415;47.870;16.058;2024-02-26T03:34:10;95786.81;;;1.39;100.00
49515;BME280;35415;47.870;16.058;2024-02-26T03:36:39;95888.78;;;1.97;100.00
49515;BME280;35415;47.870;16.058;2024-02-26T03:39:06;95958.06;;;2.44;100.00
49515;BME280;35415;47.870;16.058;2024-02-26T03:41:34;95781.75;;;1.37;100.00
49515;BME280;35415;47.870;16.058;2024-02-26T03:44:02;95952.50;;;2.46;100.00
49515;BME280;35415;47.870;16.058;2024-02-26T03:46:29;95951.19;;;2.48;100.00
49515;BME280;35415;47.870;16.058;2024-02-26T03:48:58;95847.66;;;1.72;100.00
49515;BME280;35415;47.870;16.058;2024-02-26T03:51:25;95826.00;;;1.59;100.00
49515;BME280;35415;47.870;16.058;2024-02-26T03:53:56;95863.19;;;2.07;100.00
49515;BME280;35415;47.870;16.058;2024-02-26T03:56:24;95922.50;;;2.45;100.00
49515;BME280;35415;47.870;16.058;2024-02-26T03:58:52;95908.72;;;2.48;100.00
49515;BME280;35415;47.870;16.058;2024-02-26T04:01:19;95770.34;;;1.59;100.00
49515;BME280;35415;47.870;16.058;2024-02-26T04:03:46;95732.78;;;1.40;100.00
49515;BME280;35415;47.870;16.058;2024-02-26T04:06:15;95895.22;;;2.50;100.00
49515;BME280;35415;47.870;16.058;2024-02-26T04:08:43;95717.97;;;1.44;100.00
49515;BME280;35415;47.870;16.058;2024-02-26T04:11:10;95911.75;;;2.57;100.00
49515;BME280;35415;47.870;16.058;2024-02-26T04:13:38;95890.41;;;2.47;100.00
49515;BME280;35415;47.870;16.058;2024-02-26T04:16:06;95793.34;;;1.75;100.00
49515;BME280;35415;47.870;16.058;2024-02-26T04:18:33;95757.97;;;1.64;100.00
49515;BME280;35415;47.870;16.058;2024-02-26T04:21:00;95806.66;;;1.80;100.00
49515;BME280;35415;47.870;16.058;2024-02-26T04:23:29;95772.00;;;1.65;100.00
49515;BME280;35415;47.870;16.058;2024-02-26T04:25:56;95912.34;;;2.64;100.00
49515;BME280;35415;47.870;16.058;2024-02-26T04:28:23;95897.94;;;2.55;100.00
49515;BME280;35415;47.870;16.058;2024-02-26T04:30:52;95862.59;;;2.27;100.00
49515;BME280;35415;47.870;16.058;2024-02-26T04:33:19;95856.25;;;2.28;100.00
49515;BME280;35415;47.870;16.058;2024-02-26T04:35:46;95917.91;;;2.62;100.00
49515;BME280;35415;47.870;16.058;2024-02-26T04:38:13;95843.56;;;2.08;100.00
49515;BME280;35415;47.870;16.058;2024-02-26T04:40:42;95888.84;;;2.51;100.00
49515;BME280;35415;47.870;16.058;2024-02-26T04:43:09;95811.38;;;2.00;100.00
49515;BME280;35415;47.870;16.058;2024-02-26T04:45:37;95813.22;;;1.99;100.00
49515;BME280;35415;47.870;16.058;2024-02-26T04:48:04;95914.19;;;2.63;100.00
49515;BME280;35415;47.870;16.058;2024-02-26T04:50:32;95901.38;;;2.55;100.00
49515;BME280;35415;47.870;16.058;2024-02-26T04:52:59;95784.63;;;1.79;100.00
49515;BME280;35415;47.870;16.058;2024-02-26T04:55:27;95728.31;;;1.45;100.00
49515;BME280;35415;47.870;16.058;2024-02-26T04:57:55;95914.97;;;2.59;100.00
49515;BME280;35415;47.870;16.058;2024-02-26T05:00:22;95905.09;;;2.54;100.00
49515;BME280;35415;47.870;16.058;2024-02-26T05:02:49;95895.41;;;2.43;100.00
49515;BME280;35415;47.870;16.058;2024-02-26T05:05:17;95865.72;;;2.19;100.00
49515;BME280;35415;47.870;16.058;2024-02-26T05:07:44;95896.97;;;2.39;100.00
49515;BME280;35415;47.870;16.058;2024-02-26T05:10:12;95930.09;;;2.58;100.00
49515;BME280;35415;47.870;16.058;2024-02-26T05:12:39;95928.19;;;2.54;100.00
49515;BME280;35415;47.870;16.058;2024-02-26T05:15:10;95936.41;;;2.52;100.00
49515;BME280;35415;47.870;16.058;2024-02-26T05:17:41;95939.53;;;2.49;100.00
49515;BME280;35415;47.870;16.058;2024-02-26T05:20:09;95894.69;;;2.26;100.00
49515;BME280;35415;47.870;16.058;2024-02-26T05:22:37;95865.41;;;1.94;100.00
49515;BME280;35415;47.870;16.058;2024-02-26T05:25:04;95909.06;;;2.30;100.00
49515;BME280;35415;47.870;16.058;2024-02-26T05:27:32;95778.06;;;1.38;100.00
49515;BME280;35415;47.870;16.058;2024-02-26T05:29:59;95744.16;;;1.18;100.00
49515;BME280;35415;47.870;16.058;2024-02-26T05:32:28;95792.97;;;1.44;100.00
49515;BME280;35415;47.870;16.058;2024-02-26T05:34:55;95914.31;;;2.25;100.00
49515;BME280;35415;47.870;16.058;2024-02-26T05:37:22;95720.13;;;1.03;100.00
49515;BME280;35415;47.870;16.058;2024-02-26T05:39:49;95738.25;;;1.11;100.00
49515;BME280;35415;47.870;16.058;2024-02-26T05:42:17;95752.03;;;1.13;100.00
49515;BME280;35415;47.870;16.058;2024-02-26T05:44:44;95744.13;;;0.97;100.00
49515;BME280;35415;47.870;16.058;2024-02-26T05:47:12;95918.53;;;2.21;100.00
49515;BME280;35415;47.870;16.058;2024-02-26T05:49:41;95900.06;;;2.09;100.00
49515;BME280;35415;47.870;16.058;2024-02-26T05:52:08;95839.94;;;1.71;100.00
49515;BME280;35415;47.870;16.058;2024-02-26T05:54:36;95818.16;;;1.47;100.00
49515;BME280;35415;47.870;16.058;2024-02-26T05:57:03;95808.19;;;1.54;100.00
49515;BME280;35415;47.870;16.058;2024-02-26T05:59:30;95910.88;;;2.24;100.00
49515;BME280;35415;47.870;16.058;2024-02-26T06:01:57;95913.00;;;2.27;100.00
49515;BME280;35415;47.870;16.058;2024-02-26T06:04:25;95907.22;;;2.30;100.00
49515;BME280;35415;47.870;16.058;2024-02-26T06:06:53;95825.69;;;1.77;100.00
49515;BME280;35415;47.870;16.058;2024-02-26T06:09:22;95861.94;;;1.93;100.00
49515;BME280;35415;47.870;16.058;2024-02-26T06:11:50;95913.88;;;2.33;100.00
49515;BME280;35415;47.870;16.058;2024-02-26T06:14:17;95855.06;;;1.92;100.00
49515;BME280;35415;47.870;16.058;2024-02-26T06:16:45;95917.94;;;2.40;99.46
49515;BME280;35415;47.870;16.058;2024-02-26T06:19:12;95761.41;;;1.43;97.90
49515;BME280;35415;47.870;16.058;2024-02-26T06:21:39;95908.47;;;2.50;97.68
49515;BME280;35415;47.870;16.058;2024-02-26T06:24:08;95727.28;;;1.46;97.30
49515;BME280;35415;47.870;16.058;2024-02-26T06:26:35;95890.78;;;2.55;97.73
49515;BME280;35415;47.870;16.058;2024-02-26T06:29:02;95838.44;;;2.24;96.75
49515;BME280;35415;47.870;16.058;2024-02-26T06:31:29;95811.19;;;2.06;95.54
49515;BME280;35415;47.870;16.058;2024-02-26T06:33:57;95767.03;;;1.95;95.59
49515;BME280;35415;47.870;16.058;2024-02-26T06:36:24;95851.47;;;2.52;94.52
49515;BME280;35415;47.870;16.058;2024-02-26T06:38:51;95914.78;;;2.97;94.32
49515;BME280;35415;47.870;16.058;2024-02-26T06:41:21;95848.06;;;2.57;94.44
49515;BME280;35415;47.870;16.058;2024-02-26T06:43:52;95752.72;;;1.96;94.49
49515;BME280;35415;47.870;16.058;2024-02-26T06:46:20;95856.41;;;2.70;95.52
49515;BME280;35415;47.870;16.058;2024-02-26T06:48:48;95834.53;;;2.58;96.33
49515;BME280;35415;47.870;16.058;2024-02-26T06:51:15;95825.72;;;2.53;96.13
49515;BME280;35415;47.870;16.058;2024-02-26T06:53:42;95743.34;;;2.10;95.54
49515;BME280;35415;47.870;16.058;2024-02-26T06:56:09;95746.53;;;2.13;96.48
49515;BME280;35415;47.870;16.058;2024-02-26T06:58:38;95858.16;;;2.87;96.90
49515;BME280;35415;47.870;16.058;2024-02-26T07:01:05;95739.91;;;2.15;96.68
49515;BME280;35415;47.870;16.058;2024-02-26T07:03:33;95914.72;;;3.19;97.07
49515;BME280;35415;47.870;16.058;2024-02-26T07:06:00;95780.50;;;2.42;96.23
49515;BME280;35415;47.870;16.058;2024-02-26T07:08:28;95909.50;;;3.35;95.23
49515;BME280;35415;47.870;16.058;2024-02-26T07:10:55;95854.59;;;3.08;96.91
49515;BME280;35415;47.870;16.058;2024-02-26T07:13:22;95739.09;;;2.41;95.80
49515;BME280;35415;47.870;16.058;2024-02-26T07:15:51;95793.25;;;2.72;93.59
49515;BME280;35415;47.870;16.058;2024-02-26T07:18:18;95852.06;;;3.28;95.37
49515;BME280;35415;47.870;16.058;2024-02-26T07:20:46;95913.50;;;3.74;95.47
49515;BME280;35415;47.870;16.058;2024-02-26T07:23:13;95826.59;;;3.32;93.57
49515;BME280;35415;47.870;16.058;2024-02-26T07:25:40;95745.75;;;2.81;94.61
49515;BME280;35415;47.870;16.058;2024-02-26T07:28:07;95768.50;;;3.04;94.24
49515;BME280;35415;47.870;16.058;2024-02-26T07:30:35;95807.97;;;3.32;92.84
49515;BME280;35415;47.870;16.058;2024-02-26T07:33:04;95785.38;;;3.30;93.11
49515;BME280;35415;47.870;16.058;2024-02-26T07:35:31;95923.56;;;4.19;91.86
49515;BME280;35415;47.870;16.058;2024-02-26T07:37:59;95910.53;;;4.18;91.28
49515;BME280;35415;47.870;16.058;2024-02-26T07:40:26;95834.81;;;3.83;91.12
49515;BME280;35415;47.870;16.058;2024-02-26T07:42:53;95768.19;;;3.43;85.78
49515;BME280;35415;47.870;16.058;2024-02-26T07:45:21;95815.22;;;4.00;79.12
49515;BME280;35415;47.870;16.058;2024-02-26T07:47:48;95902.75;;;4.74;85.29
49515;BME280;35415;47.870;16.058;2024-02-26T07:50:18;95795.06;;;4.24;85.17
49515;BME280;35415;47.870;16.058;2024-02-26T07:52:46;95868.91;;;4.79;82.04
49515;BME280;35415;47.870;16.058;2024-02-26T07:55:14;95758.06;;;4.33;82.88
49515;BME280;35415;47.870;16.058;2024-02-26T07:57:42;95898.78;;;5.32;83.82
49515;BME280;35415;47.870;16.058;2024-02-26T08:00:10;95806.31;;;4.87;83.62
49515;BME280;35415;47.870;16.058;2024-02-26T08:02:42;95754.09;;;4.66;83.41
49515;BME280;35415;47.870;16.058;2024-02-26T08:05:09;95830.81;;;5.30;80.87
49515;BME280;35415;47.870;16.058;2024-02-26T08:07:38;95831.59;;;5.40;80.84
49515;BME280;35415;47.870;16.058;2024-02-26T08:10:06;95727.97;;;4.93;68.46
49515;BME280;35415;47.870;16.058;2024-02-26T08:12:33;95880.53;;;6.00;76.75
49515;BME280;35415;47.870;16.058;2024-02-26T08:15:00;95877.31;;;6.14;69.10
49515;BME280;35415;47.870;16.058;2024-02-26T08:17:27;95901.97;;;6.50;67.70
49515;BME280;35415;47.870;16.058;2024-02-26T08:19:55;95770.91;;;5.82;63.97
49515;BME280;35415;47.870;16.058;2024-02-26T08:22:22;95754.06;;;5.96;58.54
49515;BME280;35415;47.870;16.058;2024-02-26T08:24:51;95798.41;;;6.42;57.51
49515;BME280;35415;47.870;16.058;2024-02-26T08:27:18;95753.06;;;6.31;55.52
49515;BME280;35415;47.870;16.058;2024-02-26T08:29:45;95781.56;;;6.80;54.81
49515;BME280;35415;47.870;16.058;2024-02-26T08:32:13;95793.19;;;7.29;52.29
49515;BME280;35415;47.870;16.058;2024-02-26T08:34:40;95896.38;;;8.17;52.64
49515;BME280;35415;47.870;16.058;2024-02-26T08:37:07;95757.69;;;7.47;51.64
49515;BME280;35415;47.870;16.058;2024-02-26T08:39:34;95759.09;;;7.63;51.25
49515;BME280;35415;47.870;16.058;2024-02-26T08:42:03;95865.47;;;8.48;50.58
49515;BME280;35415;47.870;16.058;2024-02-26T08:44:30;95918.91;;;9.01;49.45
49515;BME280;35415;47.870;16.058;2024-02-26T08:46:57;95848.91;;;8.65;49.15
49515;BME280;35415;47.870;16.058;2024-02-26T08:49:25;95782.53;;;8.38;48.70
49515;BME280;35415;47.870;16.058;2024-02-26T08:51:52;95917.28;;;9.38;50.37
49515;BME280;35415;47.870;16.058;2024-02-26T08:54:19;95928.59;;;9.53;48.71
49515;BME280;35415;47.870;16.058;2024-02-26T08:56:46;95792.59;;;8.84;47.67
49515;BME280;35415;47.870;16.058;2024-02-26T08:59:15;95830.31;;;9.06;47.21
49515;BME280;35415;47.870;16.058;2024-02-26T09:01:47;95787.69;;;8.91;47.48
49515;BME280;35415;47.870;16.058;2024-02-26T09:04:15;95926.22;;;9.98;48.76
49515;BME280;35415;47.870;16.058;2024-02-26T09:06:42;95908.53;;;9.97;49.41
49515;BME280;35415;47.870;16.058;2024-02-26T09:09:09;95924.47;;;10.21;47.49
49515;BME280;35415;47.870;16.058;2024-02-26T09:11:36;95913.84;;;10.30;49.11
49515;BME280;35415;47.870;16.058;2024-02-26T09:14:03;95817.88;;;9.75;49.24
49515;BME280;35415;47.870;16.058;2024-02-26T09:16:32;95805.16;;;9.81;46.91
49515;BME280;35415;47.870;16.058;2024-02-26T09:18:59;95862.78;;;10.30;47.52
49515;BME280;35415;47.870;16.058;2024-02-26T09:21:27;95805.16;;;10.08;43.59
49515;BME280;35415;47.870;16.058;2024-02-26T09:23:54;95760.47;;;9.99;43.52
49515;BME280;35415;47.870;16.058;2024-02-26T09:26:21;95778.78;;;10.24;43.85
49515;BME280;35415;47.870;16.058;2024-02-26T09:28:48;95889.09;;;11.19;42.50
49515;BME280;35415;47.870;16.058;2024-02-26T09:31:17;95833.91;;;10.85;44.58
49515;BME280;35415;47.870;16.058;2024-02-26T09:33:46;95883.72;;;11.41;47.23
49515;BME280;35415;47.870;16.058;2024-02-26T09:36:13;95773.81;;;10.67;48.68
49515;BME280;35415;47.870;16.058;2024-02-26T09:38:40;95791.84;;;10.89;48.83
49515;BME280;35415;47.870;16.058;2024-02-26T09:41:13;95749.97;;;10.74;47.94
49515;BME280;35415;47.870;16.058;2024-02-26T09:43:43;95884.44;;;11.78;48.27
49515;BME280;35415;47.870;16.058;2024-02-26T09:46:12;95846.19;;;11.67;46.79
49515;BME280;35415;47.870;16.058;2024-02-26T09:48:42;95907.19;;;12.16;46.12
49515;BME280;35415;47.870;16.058;2024-02-26T09:51:12;95763.66;;;11.31;43.19
49515;BME280;35415;47.870;16.058;2024-02-26T09:53:39;95853.19;;;11.99;45.03
49515;BME280;35415;47.870;16.058;2024-02-26T09:56:11;95887.44;;;12.38;43.22
49515;BME280;35415;47.870;16.058;2024-02-26T09:58:41;95776.63;;;11.60;42.39
49515;BME280;35415;47.870;16.058;2024-02-26T10:01:13;95774.22;;;11.81;40.06
49515;BME280;35415;47.870;16.058;2024-02-26T10:03:42;95765.81;;;11.83;39.71
49515;BME280;35415;47.870;16.058;2024-02-26T10:06:12;95766.34;;;11.93;38.41
49515;BME280;35415;47.870;16.058;2024-02-26T10:08:39;95852.31;;;12.60;38.70
49515;BME280;35415;47.870;16.058;2024-02-26T10:11:07;95759.09;;;12.11;37.73
49515;BME280;35415;47.870;16.058;2024-02-26T10:13:35;95849.91;;;12.76;38.51
49515;BME280;35415;47.870;16.058;2024-02-26T10:16:03;95903.81;;;13.24;37.93
49515;BME280;35415;47.870;16.058;2024-02-26T10:18:45;95904.94;;;13.32;39.34
49515;BME280;35415;47.870;16.058;2024-02-26T10:21:16;95876.69;;;13.30;36.67
49515;BME280;35415;47.870;16.058;2024-02-26T10:23:44;95765.97;;;12.69;37.74
49515;BME280;35415;47.870;16.058;2024-02-26T10:26:13;95785.03;;;12.81;38.13
49515;BME280;35415;47.870;16.058;2024-02-26T10:28:41;95909.19;;;13.59;36.65
49515;BME280;35415;47.870;16.058;2024-02-26T10:31:09;95776.13;;;12.72;36.90
49515;BME280;35415;47.870;16.058;2024-02-26T10:33:38;95832.31;;;13.05;36.76
49515;BME280;35415;47.870;16.058;2024-02-26T10:36:08;95814.72;;;13.24;36.97
49515;BME280;35415;47.870;16.058;2024-02-26T10:38:37;95776.13;;;12.98;36.58
49515;BME280;35415;47.870;16.058;2024-02-26T10:41:06;95792.81;;;13.00;36.37
49515;BME280;35415;47.870;16.058;2024-02-26T10:43:34;95812.00;;;13.24;36.33
49515;BME280;35415;47.870;16.058;2024-02-26T10:46:01;95798.03;;;13.14;36.21
49515;BME280;35415;47.870;16.058;2024-02-26T10:48:28;95781.50;;;13.15;35.88
49515;BME280;35415;47.870;16.058;2024-02-26T10:50:56;95848.66;;;13.60;35.93
49515;BME280;35415;47.870;16.058;2024-02-26T10:53:29;95938.38;;;14.09;36.61
49515;BME280;35415;47.870;16.058;2024-02-26T10:56:00;95814.53;;;13.38;36.50
49515;BME280;35415;47.870;16.058;2024-02-26T10:58:29;95885.78;;;13.89;36.28
49515;BME280;35415;47.870;16.058;2024-02-26T11:00:57;95829.59;;;13.57;35.69
49515;BME280;35415;47.870;16.058;2024-02-26T11:03:25;95808.03;;;13.39;36.67
49515;BME280;35415;47.870;16.058;2024-02-26T11:05:52;95906.53;;;14.23;37.70
49515;BME280;35415;47.870;16.058;2024-02-26T11:08:20;95881.59;;;14.09;37.22
49515;BME280;35415;47.870;16.058;2024-02-26T11:10:48;95764.69;;;13.27;38.56
49515;BME280;35415;47.870;16.058;2024-02-26T11:13:18;95918.59;;;14.34;39.02
49515;BME280;35415;47.870;16.058;2024-02-26T11:15:46;95862.38;;;14.02;36.55
49515;BME280;35415;47.870;16.058;2024-02-26T11:18:15;95835.81;;;14.04;38.88
49515;BME280;35415;47.870;16.058;2024-02-26T11:20:42;95847.88;;;14.15;38.87
49515;BME280;35415;47.870;16.058;2024-02-26T11:23:10;95882.28;;;14.44;36.89
49515;BME280;35415;47.870;16.058;2024-02-26T11:25:37;95889.84;;;14.59;38.38
49515;BME280;35415;47.870;16.058;2024-02-26T11:28:08;95782.94;;;13.94;36.97
49515;BME280;35415;47.870;16.058;2024-02-26T11:30:43;95911.69;;;14.84;38.88
49515;BME280;35415;47.870;16.058;2024-02-26T11:33:13;95925.69;;;14.86;37.85
49515;BME280;35415;47.870;16.058;2024-02-26T11:35:41;95796.25;;;13.99;36.46
49515;BME280;35415;47.870;16.058;2024-02-26T11:38:17;95887.78;;;14.65;39.00
49515;BME280;35415;47.870;16.058;2024-02-26T11:40:45;95925.97;;;14.93;38.40
49515;BME280;35415;47.870;16.058;2024-02-26T11:43:12;95768.88;;;14.01;37.62
49515;BME280;35415;47.870;16.058;2024-02-26T11:45:51;95889.34;;;14.66;38.74
49515;BME280;35415;47.870;16.058;2024-02-26T11:48:25;95869.28;;;14.67;36.67
49515;BME280;35415;47.870;16.058;2024-02-26T11:50:55;95861.50;;;14.65;35.83
49515;BME280;35415;47.870;16.058;2024-02-26T11:53:26;95800.00;;;14.15;36.64
49515;BME280;35415;47.870;16.058;2024-02-26T11:56:13;95914.81;;;14.94;38.13
49515;BME280;35415;47.870;16.058;2024-02-26T11:58:40;95888.97;;;14.76;38.46
49515;BME280;35415;47.870;16.058;2024-02-26T12:04:22;95857.63;;;14.46;38.05
49515;BME280;35415;47.870;16.058;2024-02-26T12:06:52;95878.75;;;14.52;36.54
49515;BME280;35415;47.870;16.058;2024-02-26T12:09:34;95762.25;;;13.90;37.55
49515;BME280;35415;47.870;16.058;2024-02-26T12:12:03;95759.41;;;13.86;37.95
49515;BME280;35415;47.870;16.058;2024-02-26T12:14:33;95774.50;;;13.87;38.07
49515;BME280;35415;47.870;16.058;2024-02-26T12:17:01;95853.00;;;14.46;38.09
49515;BME280;35415;47.870;16.058;2024-02-26T12:19:30;95760.06;;;13.83;38.24
49515;BME280;35415;47.870;16.058;2024-02-26T12:21:58;95892.19;;;14.69;38.80
49515;BME280;35415;47.870;16.058;2024-02-26T12:24:25;95858.41;;;14.37;38.17
49515;BME280;35415;47.870;16.058;2024-02-26T12:26:53;95792.28;;;13.97;38.02
49515;BME280;35415;47.870;16.058;2024-02-26T12:29:20;95814.16;;;14.12;36.83
49515;BME280;35415;47.870;16.058;2024-02-26T12:31:48;95777.88;;;13.84;37.79
49515;BME280;35415;47.870;16.058;2024-02-26T12:34:15;95904.94;;;14.69;38.54
49515;BME280;35415;47.870;16.058;2024-02-26T12:36:44;95779.59;;;13.89;38.82
49515;BME280;35415;47.870;16.058;2024-02-26T12:39:11;95811.34;;;14.00;38.22
49515;BME280;35415;47.870;16.058;2024-02-26T12:41:39;95914.31;;;14.71;39.10
49515;BME280;35415;47.870;16.058;2024-02-26T12:44:07;95800.41;;;13.97;38.32
49515;BME280;35415;47.870;16.058;2024-02-26T12:46:35;95812.81;;;13.89;37.12
49515;BME280;35415;47.870;16.058;2024-02-26T12:49:02;95794.41;;;13.82;37.85
49515;BME280;35415;47.870;16.058;2024-02-26T12:51:29;95929.81;;;14.62;39.90
49515;BME280;35415;47.870;16.058;2024-02-26T12:53:58;95865.22;;;14.14;40.46
49515;BME280;35415;47.870;16.058;2024-02-26T12:56:26;95926.66;;;14.52;39.18
49515;BME280;35415;47.870;16.058;2024-02-26T12:58:55;95926.66;;;14.43;38.61
49515;BME280;35415;47.870;16.058;2024-02-26T13:01:23;95934.66;;;14.48;38.96
49515;BME280;35415;47.870;16.058;2024-02-26T13:03:52;95893.19;;;14.09;39.69